Time;durP1;ratioP1;P1;durP2;ratioP2;P2;SDS_P1;SDS_P2;PMS_P1;PMS_P2;Temp;Humidity;BMP_temperature;BMP_pressure;BME280_temperature;BME280_humidity;BME280_pressure;Samples;Min_cycle;Max_cycle;Signal;HPM_P1;HPM_P2
2022/10/03 00:01:21;;;;;;;14.70;4.57;;;;;;;;;;5015765;28;20276;-81
2022/10/03 00:03:59;;;;;;;15.40;4.50;;;;;;;;;;5014486;28;20264;-87
2022/10/03 00:06:40;;;;;;;16.23;4.83;;;;;;;;;;5015824;28;20177;-87
2022/10/03 00:09:18;;;;;;;17.27;5.20;;;;;;;;;;5016072;28;20215;-88
2022/10/03 00:12:04;;;;;;;17.53;5.27;;;;;;;;;;5014710;28;20207;-88
2022/10/03 00:14:39;;;;;;;19.83;5.80;;;;;;;;;;5014160;28;20205;-78
2022/10/03 00:17:11;;;;;;;17.37;5.17;;;;;;;;;;5015720;28;20300;-79
2022/10/03 00:19:40;;;;;;;19.80;5.83;;;;;;;;;;5014791;28;20213;-79
2022/10/03 00:22:25;;;;;;;13.13;4.67;;;;;;;;;;5014814;28;20209;-78
2022/10/03 00:25:11;;;;;;;12.73;5.20;;;;;;;;;;5014651;28;20276;-79
2022/10/03 00:27:56;;;;;;;16.37;5.60;;;;;;;;;;4994251;28;20315;-78
2022/10/03 00:30:23;;;;;;;11.33;5.10;;;;;;;;;;5014491;28;20181;-79
2022/10/03 00:33:08;;;;;;;15.47;6.00;;;;;;;;;;5014395;28;20181;-79
2022/10/03 00:35:52;;;;;;;17.17;5.80;;;;;;;;;;5009467;28;20200;-78
2022/10/03 00:38:18;;;;;;;18.73;5.57;;;;;;;;;;5007583;28;20213;-87
2022/10/03 00:40:47;;;;;;;13.50;5.30;;;;;;;;;;5014191;28;20188;-87
2022/10/03 00:43:36;;;;;;;18.37;5.33;;;;;;;;;;5013772;28;20181;-87
2022/10/03 00:46:21;;;;;;;14.60;4.70;;;;;;;;;;5018011;28;20245;-88
2022/10/03 00:48:56;;;;;;;14.10;5.07;;;;;;;;;;5013944;28;20177;-88
2022/10/03 00:51:31;;;;;;;13.87;5.87;;;;;;;;;;5015313;28;20180;-88
2022/10/03 00:54:03;;;;;;;13.77;5.30;;;;;;;;;;5014197;28;20184;-81
2022/10/03 00:56:38;;;;;;;15.03;5.77;;;;;;;;;;5015120;28;20177;-81
2022/10/03 00:59:10;;;;;;;15.17;5.70;;;;;;;;;;5015014;28;20204;-82
2022/10/03 01:01:42;;;;;;;14.40;5.70;;;;;;;;;;5013878;28;20181;-81
2022/10/03 01:04:09;;;;;;;13.10;5.43;;;;;;;;;;5009769;28;20222;-81
2022/10/03 01:06:45;;;;;;;14.70;5.60;;;;;;;;;;5014622;28;20180;-81
2022/10/03 01:09:21;;;;;;;12.57;5.47;;;;;;;;;;5015064;28;20260;-81
2022/10/03 01:12:00;;;;;;;15.33;5.50;;;;;;;;;;5013823;28;20188;-88
2022/10/03 01:14:26;;;;;;;12.10;5.60;;;;;;;;;;5013249;28;20200;-87
2022/10/03 01:17:09;;;;;;;16.97;5.73;;;;;;;;;;5013728;28;20189;-88
2022/10/03 01:19:45;;;;;;;14.70;6.00;;;;;;;;;;5014769;28;20260;-88
2022/10/03 01:22:20;;;;;;;15.60;6.10;;;;;;;;;;5014566;28;20169;-85
2022/10/03 01:24:49;;;;;;;15.57;6.20;;;;;;;;;;5013887;28;20177;-88
2022/10/03 01:30:21;;;;;;;16.73;6.77;;;;;;;;;;5012886;28;20229;-81
2022/10/03 01:30:23;;;;;;;18.73;7.40;;;;;;;;;;5014172;28;20203;-81
2022/10/03 01:32:49;;;;;;;17.33;6.30;;;;;;;;;;5013104;28;20192;-81
2022/10/03 01:35:34;;;;;;;18.97;7.07;;;;;;;;;;5013622;28;20278;-81
2022/10/03 01:38:00;;;;;;;17.90;6.70;;;;;;;;;;5014544;28;20209;-81
2022/10/03 01:40:29;;;;;;;17.37;7.03;;;;;;;;;;5014587;28;20292;-81
2022/10/03 01:43:01;;;;;;;19.73;6.77;;;;;;;;;;5013404;28;20213;-81
2022/10/03 01:45:46;;;;;;;20.13;6.80;;;;;;;;;;4999484;28;20200;-81
2022/10/03 01:48:35;;;;;;;16.87;7.23;;;;;;;;;;5012787;28;20196;-81
2022/10/03 01:51:31;;;;;;;17.83;7.03;;;;;;;;;;5013100;28;20185;-81
2022/10/03 01:53:57;;;;;;;15.33;6.97;;;;;;;;;;5009442;28;20201;-81
2022/10/03 01:56:31;;;;;;;19.87;6.73;;;;;;;;;;5013005;28;20192;-81
2022/10/03 01:59:05;;;;;;;15.93;6.70;;;;;;;;;;5014168;28;20216;-81
2022/10/03 02:02:05;;;;;;;15.73;6.17;;;;;;;;;;5013923;28;20176;-87
2022/10/03 02:04:38;;;;;;;18.53;6.70;;;;;;;;;;4971381;28;20219;-88
2022/10/03 02:07:16;;;;;;;14.27;6.57;;;;;;;;;;5009470;28;20193;-88
2022/10/03 02:10:01;;;;;;;19.37;6.87;;;;;;;;;;5012877;28;20181;-88
2022/10/03 02:12:33;;;;;;;21.13;7.43;;;;;;;;;;5013002;28;20184;-88
2022/10/03 02:15:07;;;;;;;18.03;6.53;;;;;;;;;;5010834;28;20185;-88
2022/10/03 02:17:44;;;;;;;19.43;6.83;;;;;;;;;;5012863;28;20213;-80
2022/10/03 02:20:22;;;;;;;15.10;6.37;;;;;;;;;;5012935;28;20185;-80
2022/10/03 02:22:56;;;;;;;13.70;6.33;;;;;;;;;;5013167;28;20177;-80
2022/10/03 02:25:25;;;;;;;15.73;7.00;;;;;;;;;;5013815;28;20169;-81
2022/10/03 02:27:57;;;;;;;14.97;6.67;;;;;;;;;;5013603;28;20232;-81
2022/10/03 02:30:29;;;;;;;16.93;7.27;;;;;;;;;;5014054;28;20204;-81
2022/10/03 02:33:04;;;;;;;13.17;6.73;;;;;;;;;;5013144;28;20181;-81
2022/10/03 02:35:49;;;;;;;13.13;6.80;;;;;;;;;;5012839;28;20196;-81
2022/10/03 02:38:23;;;;;;;14.33;6.13;;;;;;;;;;5013855;28;20209;-80
2022/10/03 02:41:01;;;;;;;13.40;6.50;;;;;;;;;;5006897;28;20184;-81
2022/10/03 02:43:54;;;;;;;14.43;6.70;;;;;;;;;;5012377;28;20209;-81
2022/10/03 02:46:35;;;;;;;14.07;6.10;;;;;;;;;;5010480;28;20178;-81
2022/10/03 02:49:04;;;;;;;13.80;6.57;;;;;;;;;;5013798;28;20211;-81
2022/10/03 02:51:39;;;;;;;17.23;6.73;;;;;;;;;;5004309;28;20185;-78
2022/10/03 02:54:14;;;;;;;19.77;6.60;;;;;;;;;;4996828;28;20185;-79
2022/10/03 02:56:58;;;;;;;22.40;7.63;;;;;;;;;;5013372;28;20184;-79
2022/10/03 02:59:45;;;;;;;19.83;7.17;;;;;;;;;;5012859;28;20182;-78
2022/10/03 03:02:30;;;;;;;16.20;6.50;;;;;;;;;;4985684;28;20193;-78
2022/10/03 03:05:14;;;;;;;20.27;8.17;;;;;;;;;;5014515;28;20181;-78
2022/10/03 03:07:43;;;;;;;14.93;7.03;;;;;;;;;;5017384;28;20217;-78
2022/10/03 03:10:12;;;;;;;14.80;6.53;;;;;;;;;;5010658;28;20192;-78
2022/10/03 03:13:00;;;;;;;17.03;7.40;;;;;;;;;;5011512;28;20187;-78
2022/10/03 03:15:36;;;;;;;17.17;6.83;;;;;;;;;;5015662;28;20216;-78
2022/10/03 03:18:25;;;;;;;18.53;7.37;;;;;;;;;;5017344;28;20208;-78
2022/10/03 03:20:51;;;;;;;13.83;7.03;;;;;;;;;;5001697;28;20264;-78
2022/10/03 03:23:36;;;;;;;17.60;8.00;;;;;;;;;;5005312;28;20209;-87
2022/10/03 03:26:17;;;;;;;16.27;6.87;;;;;;;;;;5016809;28;20193;-87
2022/10/03 03:28:55;;;;;;;16.30;7.30;;;;;;;;;;5024499;28;20196;-88
2022/10/03 03:31:29;;;;;;;16.13;8.20;;;;;;;;;;5015566;28;20263;-88
2022/10/03 03:34:06;;;;;;;13.87;7.23;;;;;;;;;;5015328;28;20188;-87
2022/10/03 03:36:35;;;;;;;17.17;7.40;;;;;;;;;;5015691;28;20193;-88
2022/10/03 03:39:20;;;;;;;16.60;7.60;;;;;;;;;;5016402;28;20209;-88
2022/10/03 03:41:55;;;;;;;18.73;6.77;;;;;;;;;;5016638;28;20186;-88
2022/10/03 03:44:28;;;;;;;16.83;7.47;;;;;;;;;;5035052;23;20259;-81
2022/10/03 03:46:57;;;;;;;16.67;7.93;;;;;;;;;;5034504;28;20283;-81
2022/10/03 03:49:42;;;;;;;13.60;7.63;;;;;;;;;;5035851;28;20192;-81
2022/10/03 03:52:31;;;;;;;12.77;6.67;;;;;;;;;;5035735;28;20216;-81
2022/10/03 03:55:15;;;;;;;17.50;8.30;;;;;;;;;;5034669;28;20216;-81
2022/10/03 03:57:55;;;;;;;17.33;7.60;;;;;;;;;;5035622;28;20299;-79
2022/10/03 04:00:30;;;;;;;18.03;7.17;;;;;;;;;;5043121;28;20180;-79
2022/10/03 04:02:56;;;;;;;14.97;7.37;;;;;;;;;;5024200;28;20180;-88
2022/10/03 04:05:29;;;;;;;15.03;7.13;;;;;;;;;;5034906;28;20183;-88
2022/10/03 04:08:01;;;;;;;16.93;7.33;;;;;;;;;;5030511;28;20227;-88
2022/10/03 04:10:27;;;;;;;15.63;7.40;;;;;;;;;;5023425;28;20181;-88
2022/10/03 04:13:11;;;;;;;14.93;6.93;;;;;;;;;;5034589;28;20177;-82
2022/10/03 04:15:58;;;;;;;15.37;7.67;;;;;;;;;;5035617;28;20227;-81
2022/10/03 04:21:14;;;;;;;14.63;6.40;;;;;;;;;;5030745;28;20239;-81
2022/10/03 04:23:43;;;;;;;14.07;7.23;;;;;;;;;;5036226;28;20184;-81
2022/10/03 04:26:17;;;;;;;20.30;8.10;;;;;;;;;;5035100;28;20192;-81
2022/10/03 04:28:52;;;;;;;19.30;7.67;;;;;;;;;;5035273;28;20180;-81
2022/10/03 04:31:30;;;;;;;14.27;7.17;;;;;;;;;;5031092;28;20231;-81
2022/10/03 04:34:23;;;;;;;13.57;7.43;;;;;;;;;;5033063;28;20177;-80
2022/10/03 04:37:05;;;;;;;15.47;7.20;;;;;;;;;;5014310;28;20193;-80
2022/10/03 04:39:58;;;;;;;15.97;7.57;;;;;;;;;;5014524;28;20185;-80
2022/10/03 04:42:43;;;;;;;17.98;8.07;;;;;;;;;;5052187;28;20499;-81
2022/10/03 04:45:27;;;;;;;15.03;7.40;;;;;;;;;;5051999;28;20248;-81
2022/10/03 04:48:27;;;;;;;14.93;6.80;;;;;;;;;;5030721;28;20181;-81
2022/10/03 04:51:03;;;;;;;13.07;6.63;;;;;;;;;;5016140;28;20198;-87
2022/10/03 04:53:39;;;;;;;12.07;6.87;;;;;;;;;;5040988;28;20192;-87
2022/10/03 04:56:30;;;;;;;13.47;7.30;;;;;;;;;;5033959;28;20180;-87
2022/10/03 04:59:03;;;;;;;13.97;7.13;;;;;;;;;;5034085;28;20208;-87
2022/10/03 05:01:44;;;;;;;16.43;7.30;;;;;;;;;;5041862;28;20212;-87
2022/10/03 05:04:25;;;;;;;12.53;7.43;;;;;;;;;;5036294;28;20191;-78
2022/10/03 05:07:10;;;;;;;12.93;7.10;;;;;;;;;;5034767;28;20262;-79
2022/10/03 05:09:40;;;;;;;14.10;7.30;;;;;;;;;;5034572;28;20251;-79
2022/10/03 05:12:06;;;;;;;17.73;7.27;;;;;;;;;;5033297;28;20189;-78
2022/10/03 05:14:51;;;;;;;12.93;7.87;;;;;;;;;;5037376;28;20194;-78
2022/10/03 05:17:36;;;;;;;16.53;7.37;;;;;;;;;;5033734;28;20208;-79
2022/10/03 05:20:11;;;;;;;18.10;8.53;;;;;;;;;;5021896;28;20413;-86
2022/10/03 05:22:56;;;;;;;15.93;7.40;;;;;;;;;;5033478;28;20176;-87
2022/10/03 05:25:52;;;;;;;16.00;7.33;;;;;;;;;;5033958;28;20211;-86
2022/10/03 05:28:21;;;;;;;11.50;6.60;;;;;;;;;;5015225;28;20223;-87
2022/10/03 05:30:57;;;;;;;15.20;6.97;;;;;;;;;;5034582;28;20191;-87
2022/10/03 05:33:42;;;;;;;11.13;6.90;;;;;;;;;;5033374;28;20176;-88
2022/10/03 05:36:14;;;;;;;14.27;6.70;;;;;;;;;;5033274;28;20279;-82
2022/10/03 05:39:01;;;;;;;15.67;6.47;;;;;;;;;;5034259;28;20215;-81
2022/10/03 05:41:39;;;;;;;14.50;6.87;;;;;;;;;;5034346;28;20168;-81
2022/10/03 05:44:05;;;;;;;16.17;7.40;;;;;;;;;;5017807;28;20295;-81
2022/10/03 05:46:54;;;;;;;15.87;7.17;;;;;;;;;;5033023;28;20279;-81
2022/10/03 05:49:23;;;;;;;16.97;6.73;;;;;;;;;;5034025;28;20181;-81
2022/10/03 05:51:58;;;;;;;13.13;6.87;;;;;;;;;;5032917;28;20183;-81
2022/10/03 05:54:47;;;;;;;13.03;7.53;;;;;;;;;;5033972;28;20207;-81
2022/10/03 05:57:31;;;;;;;14.07;7.43;;;;;;;;;;5032373;28;20181;-81
2022/10/03 06:00:15;;;;;;;15.27;7.50;;;;;;;;;;5032871;28;20188;-80
2022/10/03 06:03:05;;;;;;;11.63;7.33;;;;;;;;;;5032523;28;20242;-80
2022/10/03 06:05:41;;;;;;;15.37;7.77;;;;;;;;;;5023762;28;20221;-80
2022/10/03 06:08:28;;;;;;;12.80;7.27;;;;;;;;;;5032436;28;20180;-80
2022/10/03 06:11:06;;;;;;;13.53;8.10;;;;;;;;;;5032787;28;20207;-87
2022/10/03 06:13:51;;;;;;;18.00;7.97;;;;;;;;;;5032625;28;20283;-85
2022/10/03 06:16:36;;;;;;;16.53;9.00;;;;;;;;;;5032688;28;20187;-88
2022/10/03 06:19:15;;;;;;;19.60;8.37;;;;;;;;;;5032533;28;20219;-88
2022/10/03 06:22:07;;;;;;;16.00;8.63;;;;;;;;;;5032418;28;20181;-87
2022/10/03 06:24:39;;;;;;;16.00;8.20;;;;;;;;;;5025474;28;20283;-87
2022/10/03 06:27:32;;;;;;;19.93;9.53;;;;;;;;;;5032231;28;20207;-82
2022/10/03 06:30:04;;;;;;;16.10;8.50;;;;;;;;;;5032523;28;20173;-81
2022/10/03 06:32:50;;;;;;;17.67;8.30;;;;;;;;;;5031041;28;20192;-81
2022/10/03 06:35:25;;;;;;;16.27;8.80;;;;;;;;;;5030961;28;20215;-81
2022/10/03 06:38:17;;;;;;;16.57;9.10;;;;;;;;;;5031464;28;20266;-81
2022/10/03 06:40:43;;;;;;;15.87;8.93;;;;;;;;;;5033839;28;20183;-81
2022/10/03 06:43:16;;;;;;;16.17;8.97;;;;;;;;;;5036923;28;20177;-81
2022/10/03 06:46:06;;;;;;;14.33;8.53;;;;;;;;;;5037204;28;20227;-81
2022/10/03 06:48:50;;;;;;;17.93;9.70;;;;;;;;;;5037314;28;20231;-81
2022/10/03 06:51:34;;;;;;;18.93;9.20;;;;;;;;;;5033411;28;20212;-80
2022/10/03 06:54:00;;;;;;;14.57;9.33;;;;;;;;;;5037376;28;20173;-80
2022/10/03 06:56:53;;;;;;;19.30;9.90;;;;;;;;;;5036293;28;20187;-80
2022/10/03 06:59:43;;;;;;;15.47;9.20;;;;;;;;;;5033982;28;20220;-80
2022/10/03 07:02:32;;;;;;;14.63;9.00;;;;;;;;;;5030872;28;20192;-87
2022/10/03 07:05:22;;;;;;;16.50;8.07;;;;;;;;;;5033912;28;20192;-86
2022/10/03 07:08:07;;;;;;;15.27;8.83;;;;;;;;;;5036888;28;20183;-87
2022/10/03 07:10:49;;;;;;;15.87;9.43;;;;;;;;;;5016879;28;20226;-87
2022/10/03 07:13:18;;;;;;;15.10;8.73;;;;;;;;;;5017057;28;20200;-87
2022/10/03 07:15:50;;;;;;;17.90;8.77;;;;;;;;;;5016921;28;20184;-86
2022/10/03 07:18:22;;;;;;;19.20;9.03;;;;;;;;;;5016697;28;20347;-82
2022/10/03 07:20:54;;;;;;;13.50;7.90;;;;;;;;;;5015615;28;20200;-82
2022/10/03 07:23:20;;;;;;;15.20;8.10;;;;;;;;;;5016958;28;20229;-82
2022/10/03 07:26:05;;;;;;;14.50;7.80;;;;;;;;;;5015713;28;20272;-82
2022/10/03 07:28:50;;;;;;;14.83;7.77;;;;;;;;;;5033568;28;20196;-82
2022/10/03 07:31:23;;;;;;;17.93;8.27;;;;;;;;;;5034424;28;20238;-82
2022/10/03 07:34:09;;;;;;;15.63;8.10;;;;;;;;;;5034834;28;20181;-87
2022/10/03 07:39:56;;;;;;;14.13;7.70;;;;;;;;;;5036621;28;20199;-87
2022/10/03 07:42:31;;;;;;;13.83;7.50;;;;;;;;;;5036663;28;20219;-87
2022/10/03 07:45:13;;;;;;;13.53;7.80;;;;;;;;;;5036412;28;20224;-82
2022/10/03 07:47:52;;;;;;;13.67;7.17;;;;;;;;;;5036364;28;20266;-81
2022/10/03 07:50:27;;;;;;;10.13;6.83;;;;;;;;;;5036145;28;20192;-79
2022/10/03 07:53:17;;;;;;;13.77;6.90;;;;;;;;;;5035419;28;20226;-79
2022/10/03 07:56:01;;;;;;;14.90;7.10;;;;;;;;;;5036580;28;20214;-79
2022/10/03 07:58:51;;;;;;;13.13;6.93;;;;;;;;;;5035135;28;20200;-78
2022/10/03 08:01:35;;;;;;;11.67;6.50;;;;;;;;;;5029918;28;20177;-80
2022/10/03 08:04:25;;;;;;;13.63;6.83;;;;;;;;;;5035021;28;20172;-80
2022/10/03 08:07:20;;;;;;;10.37;6.57;;;;;;;;;;5016764;28;20185;-82
2022/10/03 08:09:47;;;;;;;11.87;7.00;;;;;;;;;;5034964;28;20176;-81
2022/10/03 08:12:13;;;;;;;12.07;6.33;;;;;;;;;;5035938;28;20168;-81
2022/10/03 08:14:57;;;;;;;12.57;5.80;;;;;;;;;;5036172;28;20199;-81
2022/10/03 08:17:26;;;;;;;13.17;6.33;;;;;;;;;;5018681;28;20200;-81
2022/10/03 08:20:10;;;;;;;12.97;6.20;;;;;;;;;;5034905;28;20187;-81
2022/10/03 08:22:36;;;;;;;12.15;6.18;;;;;;;;;;5035439;28;20441;-81
2022/10/03 08:25:21;;;;;;;9.63;5.43;;;;;;;;;;5034926;28;20183;-81
2022/10/03 08:27:50;;;;;;;11.50;5.00;;;;;;;;;;5034234;28;20191;-81
2022/10/03 08:30:43;;;;;;;9.00;4.77;;;;;;;;;;5035415;28;20181;-81
2022/10/03 08:33:33;;;;;;;7.43;4.60;;;;;;;;;;5032530;28;20220;-79
2022/10/03 08:36:20;;;;;;;11.50;4.70;;;;;;;;;;5034669;28;20183;-79
2022/10/03 08:39:05;;;;;;;10.37;4.30;;;;;;;;;;5034760;28;20208;-79
2022/10/03 08:41:50;;;;;;;8.23;4.37;;;;;;;;;;5034263;28;20230;-81
2022/10/03 08:44:16;;;;;;;11.35;4.72;;;;;;;;;;5034803;28;20432;-81
2022/10/03 08:46:51;;;;;;;10.90;4.50;;;;;;;;;;5035089;28;20177;-81
2022/10/03 08:49:34;;;;;;;9.57;4.27;;;;;;;;;;5034283;28;20188;-81
2022/10/03 08:52:28;;;;;;;10.63;3.93;;;;;;;;;;5034485;28;20187;-81
2022/10/03 08:55:12;;;;;;;10.53;3.63;;;;;;;;;;5032958;28;20271;-81
2022/10/03 08:57:54;;;;;;;8.87;3.50;;;;;;;;;;5034069;28;20208;-82
2022/10/03 09:00:23;;;;;;;13.13;4.43;;;;;;;;;;5033890;28;20180;-82
2022/10/03 09:02:49;;;;;;;9.57;3.77;;;;;;;;;;5016893;28;20189;-82
2022/10/03 09:05:15;;;;;;;11.23;4.07;;;;;;;;;;5035014;28;20322;-82
2022/10/03 09:07:57;;;;;;;6.37;3.43;;;;;;;;;;5033822;28;20184;-82
2022/10/03 09:10:41;;;;;;;8.97;3.77;;;;;;;;;;5033749;28;20181;-82
2022/10/03 09:13:15;;;;;;;12.00;4.73;;;;;;;;;;5022584;28;20181;-80
2022/10/03 09:15:56;;;;;;;11.60;4.50;;;;;;;;;;5015174;28;20260;-80
2022/10/03 09:18:22;;;;;;;8.60;4.90;;;;;;;;;;5014318;28;20213;-80
2022/10/03 09:20:48;;;;;;;11.10;4.80;;;;;;;;;;5013930;28;20181;-87
2022/10/03 09:23:32;;;;;;;9.30;3.93;;;;;;;;;;5014465;28;20188;-87
2022/10/03 09:26:17;;;;;;;10.73;3.63;;;;;;;;;;5013520;28;20187;-87
2022/10/03 09:28:58;;;;;;;9.90;3.50;;;;;;;;;;5013536;28;20185;-87
2022/10/03 09:31:44;;;;;;;11.83;3.77;;;;;;;;;;5013896;28;20181;-88
2022/10/03 09:34:34;;;;;;;11.10;4.03;;;;;;;;;;5014905;28;20173;-82
2022/10/03 09:37:00;;;;;;;9.63;3.73;;;;;;;;;;5013614;28;20235;-81
2022/10/03 09:39:26;;;;;;;8.67;3.67;;;;;;;;;;5013675;28;20204;-82
2022/10/03 09:41:59;;;;;;;9.57;2.90;;;;;;;;;;5013422;28;20249;-81
2022/10/03 09:44:28;;;;;;;8.87;2.83;;;;;;;;;;5013420;28;20228;-82
2022/10/03 09:47:26;;;;;;;9.67;2.80;;;;;;;;;;5014704;28;20230;-89
2022/10/03 09:50:06;;;;;;;7.10;2.80;;;;;;;;;;5013909;28;20197;-89
2022/10/03 09:52:51;;;;;;;10.93;2.90;;;;;;;;;;5014500;28;20201;-89
2022/10/03 09:55:30;;;;;;;8.03;2.50;;;;;;;;;;5027143;28;20183;-89
2022/10/03 09:57:56;;;;;;;7.87;2.70;;;;;;;;;;5032980;28;20215;-89
2022/10/03 10:00:27;;;;;;;9.40;2.87;;;;;;;;;;5034394;28;20181;-89
2022/10/03 10:03:11;;;;;;;9.87;3.20;;;;;;;;;;5033169;28;20259;-89
2022/10/03 10:05:37;;;;;;;8.90;3.50;;;;;;;;;;5034139;28;20200;-89
2022/10/03 10:08:22;;;;;;;10.33;3.23;;;;;;;;;;5033073;28;20200;-88
2022/10/03 10:10:56;;;;;;;7.27;3.03;;;;;;;;;;5033000;28;20230;-88
2022/10/03 10:13:41;;;;;;;11.50;2.88;;;;;;;;;;5040049;22;20258;-82
2022/10/03 10:16:27;;;;;;;8.32;2.83;;;;;;;;;;5036836;28;20259;-81
2022/10/03 10:19:03;;;;;;;7.50;2.37;;;;;;;;;;5036443;28;20207;-81
2022/10/03 10:21:47;;;;;;;8.33;2.67;;;;;;;;;;5037335;28;20176;-83
2022/10/03 10:24:13;;;;;;;7.63;3.10;;;;;;;;;;5037007;28;20195;-83
2022/10/03 10:26:58;;;;;;;8.10;3.17;;;;;;;;;;5038197;28;20177;-83
2022/10/03 10:29:27;;;;;;;9.00;3.10;;;;;;;;;;5036955;28;20180;-82
2022/10/03 10:32:12;;;;;;;10.53;3.37;;;;;;;;;;5036584;28;20180;-83
2022/10/03 10:34:51;;;;;;;7.87;2.90;;;;;;;;;;5036535;28;20206;-83
2022/10/03 10:37:23;;;;;;;7.40;2.90;;;;;;;;;;5036343;28;20215;-81
2022/10/03 10:40:07;;;;;;;7.40;3.00;;;;;;;;;;5036515;28;20271;-88
2022/10/03 10:43:08;;;;;;;9.00;2.83;;;;;;;;;;5036349;28;20180;-88
2022/10/03 10:45:35;;;;;;;10.03;2.37;;;;;;;;;;4998006;28;20181;-88
2022/10/03 10:48:10;;;;;;;9.03;2.90;;;;;;;;;;5030291;28;20200;-88
2022/10/03 10:50:55;;;;;;;7.37;2.30;;;;;;;;;;5036130;28;20184;-88
2022/10/03 10:53:50;;;;;;;4.97;2.03;;;;;;;;;;5021544;28;20188;-87
2022/10/03 10:56:16;;;;;;;7.07;2.27;;;;;;;;;;5007690;28;20194;-87
2022/10/03 10:59:01;;;;;;;7.70;2.30;;;;;;;;;;5027878;28;20212;-87
2022/10/03 11:01:33;;;;;;;4.57;2.10;;;;;;;;;;5035398;28;20187;-87
2022/10/03 11:04:18;;;;;;;5.70;2.17;;;;;;;;;;5035630;28;20195;-88
2022/10/03 11:06:53;;;;;;;6.28;2.25;;;;;;;;;;5036824;28;20406;-88
2022/10/03 11:09:38;;;;;;;7.07;2.30;;;;;;;;;;5035659;28;20173;-89
2022/10/03 11:12:07;;;;;;;7.73;2.03;;;;;;;;;;5036104;28;20184;-81
2022/10/03 11:14:52;;;;;;;6.60;2.30;;;;;;;;;;5035704;28;20236;-82
2022/10/03 11:17:30;;;;;;;6.30;2.20;;;;;;;;;;5035936;28;20180;-81
2022/10/03 11:19:59;;;;;;;6.77;2.37;;;;;;;;;;5035757;28;20172;-82
2022/10/03 11:22:37;;;;;;;4.17;2.23;;;;;;;;;;5035438;28;20192;-81
2022/10/03 11:25:34;;;;;;;7.33;2.37;;;;;;;;;;5035057;28;20200;-81
2022/10/03 11:28:02;;;;;;;5.63;2.20;;;;;;;;;;5035439;28;20192;-88
2022/10/03 11:30:48;;;;;;;6.43;2.43;;;;;;;;;;5036366;28;20180;-82
2022/10/03 11:33:32;;;;;;;5.33;2.20;;;;;;;;;;5035460;28;20180;-82
2022/10/03 11:36:10;;;;;;;8.80;2.37;;;;;;;;;;5035295;28;20189;-82
2022/10/03 11:38:48;;;;;;;10.43;2.37;;;;;;;;;;5036237;28;20207;-82
2022/10/03 11:41:17;;;;;;;8.53;2.60;;;;;;;;;;5035518;28;20172;-82
2022/10/03 11:43:57;;;;;;;6.50;2.40;;;;;;;;;;5035273;28;20181;-79
2022/10/03 11:46:43;;;;;;;7.97;2.30;;;;;;;;;;5034920;28;20268;-80
2022/10/03 11:49:25;;;;;;;6.90;2.27;;;;;;;;;;5035685;28;20246;-79
2022/10/03 11:51:54;;;;;;;8.10;2.80;;;;;;;;;;5035460;28;20181;-79
2022/10/03 11:54:26;;;;;;;9.50;4.60;;;;;;;;;;5035537;28;20180;-82
2022/10/03 11:57:11;;;;;;;6.27;2.50;;;;;;;;;;5035187;28;20208;-82
2022/10/03 11:59:58;;;;;;;7.40;2.50;;;;;;;;;;5035093;28;20239;-81
2022/10/03 12:02:43;;;;;;;13.63;7.33;;;;;;;;;;5035433;28;20185;-82
2022/10/03 12:05:28;;;;;;;7.03;2.23;;;;;;;;;;5034992;28;20180;-82
2022/10/03 12:11:05;;;;;;;5.67;3.20;;;;;;;;;;5036026;28;20271;-82
2022/10/03 12:13:51;;;;;;;8.93;3.57;;;;;;;;;;5035862;28;20224;-82
2022/10/03 12:16:38;;;;;;;9.65;5.28;;;;;;;;;;5035439;28;20413;-88
2022/10/03 12:19:14;;;;;;;9.02;4.85;;;;;;;;;;5013978;28;20433;-87
2022/10/03 12:21:51;;;;;;;11.50;3.77;;;;;;;;;;5035184;28;20181;-87
2022/10/03 12:24:19;;;;;;;9.90;4.23;;;;;;;;;;5035780;28;20173;-87
2022/10/03 12:27:00;;;;;;;10.77;4.97;;;;;;;;;;5034726;28;20212;-87
2022/10/03 12:29:31;;;;;;;6.73;3.50;;;;;;;;;;5034726;28;20263;-88
2022/10/03 12:32:08;;;;;;;20.60;12.30;;;;;;;;;;5034485;28;20226;-87
2022/10/03 12:34:39;;;;;;;15.30;8.07;;;;;;;;;;5034425;28;20172;-80
2022/10/03 12:37:24;;;;;;;9.27;5.17;;;;;;;;;;5034450;28;20176;-79
2022/10/03 12:40:09;;;;;;;17.57;10.17;;;;;;;;;;5033920;28;20424;-79
2022/10/03 12:42:59;;;;;;;5.50;2.10;;;;;;;;;;5033293;28;20475;-79
2022/10/03 12:45:39;;;;;;;5.80;1.97;;;;;;;;;;5034061;28;20187;-79
2022/10/03 12:48:15;;;;;;;6.17;1.90;;;;;;;;;;5034191;28;20184;-79
2022/10/03 12:50:46;;;;;;;6.23;1.67;;;;;;;;;;5034257;28;20177;-79
2022/10/03 12:53:18;;;;;;;6.53;2.07;;;;;;;;;;5034055;28;20177;-82
2022/10/03 12:56:03;;;;;;;7.97;2.30;;;;;;;;;;5034020;28;20227;-82
2022/10/03 12:58:41;;;;;;;6.40;1.70;;;;;;;;;;5033929;28;20206;-82
2022/10/03 13:01:10;;;;;;;7.13;2.10;;;;;;;;;;5034999;28;20195;-82
2022/10/03 13:03:52;;;;;;;4.57;1.73;;;;;;;;;;5034487;28;20176;-82
2022/10/03 13:06:24;;;;;;;4.57;1.47;;;;;;;;;;5033933;28;20192;-82
2022/10/03 13:09:09;;;;;;;8.03;1.70;;;;;;;;;;5034982;28;20177;-82
2022/10/03 13:11:54;;;;;;;5.57;1.70;;;;;;;;;;5033756;28;20190;-82
2022/10/03 13:14:27;;;;;;;5.67;1.50;;;;;;;;;;5034071;28;20228;-81
2022/10/03 13:17:00;;;;;;;6.23;1.77;;;;;;;;;;5034775;28;20168;-81
2022/10/03 13:19:30;;;;;;;4.00;1.63;;;;;;;;;;5034895;28;20200;-81
2022/10/03 13:22:06;;;;;;;5.72;1.90;;;;;;;;;;5033525;28;20417;-81
2022/10/03 13:24:38;;;;;;;6.00;1.90;;;;;;;;;;5034894;28;20251;-82
2022/10/03 13:27:11;;;;;;;5.00;1.80;;;;;;;;;;5033592;28;20173;-82
2022/10/03 13:29:40;;;;;;;6.37;1.90;;;;;;;;;;5034730;28;20197;-82
2022/10/03 13:32:17;;;;;;;4.20;1.70;;;;;;;;;;5033768;28;20275;-82
2022/10/03 13:34:52;;;;;;;8.47;2.07;;;;;;;;;;5034332;28;20169;-82
2022/10/03 13:37:41;;;;;;;6.60;1.70;;;;;;;;;;5033742;28;20271;-82
2022/10/03 13:40:11;;;;;;;6.97;1.97;;;;;;;;;;5033144;28;20185;-81
2022/10/03 13:42:39;;;;;;;5.80;1.70;;;;;;;;;;5034557;28;20234;-81
2022/10/03 13:45:18;;;;;;;7.67;1.90;;;;;;;;;;5033790;28;20211;-81
2022/10/03 13:47:47;;;;;;;7.00;1.90;;;;;;;;;;5033776;28;20215;-81
2022/10/03 13:50:29;;;;;;;8.53;2.30;;;;;;;;;;5034010;28;20200;-81
2022/10/03 13:52:59;;;;;;;6.65;3.70;;;;;;;;;;5032562;28;20442;-81
2022/10/03 13:55:44;;;;;;;6.32;3.60;;;;;;;;;;5032955;28;20411;-81
2022/10/03 13:58:16;;;;;;;7.75;2.90;;;;;;;;;;5032686;28;20421;-80
2022/10/03 14:01:10;;;;;;;7.60;1.80;;;;;;;;;;5033025;28;20236;-79
2022/10/03 14:03:47;;;;;;;6.67;2.20;;;;;;;;;;5014341;28;20191;-79
2022/10/03 14:06:23;;;;;;;7.87;2.53;;;;;;;;;;5032781;28;20175;-81
2022/10/03 14:09:01;;;;;;;6.40;2.10;;;;;;;;;;5032580;28;20181;-82
2022/10/03 14:11:47;;;;;;;7.17;2.10;;;;;;;;;;5032488;28;20263;-82
2022/10/03 14:14:13;;;;;;;8.53;2.37;;;;;;;;;;5032758;28;20235;-87
2022/10/03 14:16:59;;;;;;;6.25;2.20;;;;;;;;;;5033251;28;20417;-87
2022/10/03 14:19:44;;;;;;;6.43;2.00;;;;;;;;;;5032519;28;20205;-87
2022/10/03 14:22:29;;;;;;;15.17;2.10;;;;;;;;;;5032779;28;20175;-87
2022/10/03 14:24:55;;;;;;;6.93;1.80;;;;;;;;;;5032615;28;20176;-88
2022/10/03 14:27:21;;;;;;;6.13;2.10;;;;;;;;;;5033692;28;20165;-88
2022/10/03 14:29:58;;;;;;;5.93;2.00;;;;;;;;;;5033633;28;20181;-88
2022/10/03 14:32:34;;;;;;;6.33;2.17;;;;;;;;;;5032507;28;20267;-81
2022/10/03 14:35:06;;;;;;;7.65;2.22;;;;;;;;;;5032738;28;20417;-81
2022/10/03 14:37:40;;;;;;;6.23;2.07;;;;;;;;;;5032331;28;20220;-81
2022/10/03 14:40:16;;;;;;;4.77;1.80;;;;;;;;;;5032385;28;20272;-81
2022/10/03 14:42:53;;;;;;;6.13;2.30;;;;;;;;;;5032667;28;20184;-81
2022/10/03 14:45:25;;;;;;;7.53;2.17;;;;;;;;;;5033247;28;20176;-81
2022/10/03 14:47:53;;;;;;;5.60;2.27;;;;;;;;;;5032378;28;20181;-81
2022/10/03 14:50:25;;;;;;;9.43;2.58;;;;;;;;;;5031526;28;20410;-81
2022/10/03 14:53:01;;;;;;;8.75;2.60;;;;;;;;;;5031283;28;20434;-81
2022/10/03 14:55:31;;;;;;;7.55;2.20;;;;;;;;;;5031715;28;20413;-81
2022/10/03 14:58:04;;;;;;;8.47;2.10;;;;;;;;;;5030891;28;20192;-81
2022/10/03 15:00:34;;;;;;;6.63;1.97;;;;;;;;;;5032990;28;20180;-81
2022/10/03 15:03:13;;;;;;;7.83;2.10;;;;;;;;;;5035831;28;20180;-81
2022/10/03 15:05:51;;;;;;;6.33;2.07;;;;;;;;;;5036144;28;20168;-81
2022/10/03 15:08:17;;;;;;;10.50;2.20;;;;;;;;;;5035763;28;20176;-81
2022/10/03 15:10:44;;;;;;;7.57;2.03;;;;;;;;;;5035802;28;20215;-81
2022/10/03 15:13:11;;;;;;;5.67;1.90;;;;;;;;;;5035631;28;20287;-81
2022/10/03 15:15:40;;;;;;;6.70;1.90;;;;;;;;;;5035672;28;20181;-81
2022/10/03 15:18:07;;;;;;;5.47;2.13;;;;;;;;;;5035455;28;20212;-81
2022/10/03 15:20:36;;;;;;;10.00;2.20;;;;;;;;;;5019153;28;20180;-81
2022/10/03 15:23:03;;;;;;;9.23;2.60;;;;;;;;;;5036866;28;20200;-81
2022/10/03 15:25:35;;;;;;;7.17;2.27;;;;;;;;;;5035500;28;20181;-82
2022/10/03 15:28:04;;;;;;;7.60;2.30;;;;;;;;;;5035543;28;20181;-82
2022/10/03 15:30:33;;;;;;;7.70;2.00;;;;;;;;;;5035642;28;20183;-82
2022/10/03 15:33:14;;;;;;;6.23;1.97;;;;;;;;;;5036372;28;20209;-81
2022/10/03 15:35:42;;;;;;;8.30;2.40;;;;;;;;;;5035221;28;20187;-81
2022/10/03 15:38:13;;;;;;;6.97;2.00;;;;;;;;;;5036311;28;20227;-81
2022/10/03 15:40:40;;;;;;;9.53;2.40;;;;;;;;;;5035037;28;20172;-81
2022/10/03 15:43:18;;;;;;;7.90;2.73;;;;;;;;;;5035256;28;20180;-82
2022/10/03 15:45:45;;;;;;;12.17;2.60;;;;;;;;;;5035409;28;20183;-82
2022/10/03 15:48:13;;;;;;;6.70;2.10;;;;;;;;;;5018656;28;20187;-82